createdAt,value
2022-12-08T00:00:14.557Z,3.78
2022-12-08T00:02:44.962Z,5.68
2022-12-08T00:05:33.537Z,4.05
2022-12-08T00:08:22.266Z,3.15
2022-12-08T00:10:52.435Z,3.33
2022-12-08T00:13:22.613Z,2.40
2022-12-08T00:15:52.823Z,4.20
2022-12-08T00:18:23.015Z,5.97
2022-12-08T00:20:57.228Z,3.35
2022-12-08T00:23:27.542Z,2.40
2022-12-08T00:26:01.404Z,4.10
2022-12-08T00:28:32.742Z,2.47
2022-12-08T00:31:10.520Z,4.65
2022-12-08T00:33:40.734Z,4.70
2022-12-08T00:36:15.353Z,3.40
2022-12-08T00:38:47.338Z,3.60
2022-12-08T00:41:40.285Z,4.07
2022-12-08T00:44:13.188Z,2.50
2022-12-08T00:46:43.447Z,3.53
2022-12-08T00:49:14.494Z,1.90
2022-12-08T00:51:44.754Z,5.22
2022-12-08T00:54:15.530Z,3.70
2022-12-08T00:56:46.422Z,2.92
2022-12-08T00:59:16.591Z,3.10
2022-12-08T01:01:47.909Z,2.75
2022-12-08T01:04:19.163Z,2.67
2022-12-08T01:06:49.824Z,2.85
2022-12-08T01:09:20.178Z,2.50
2022-12-08T01:11:50.611Z,2.63
2022-12-08T01:14:21.242Z,3.03
2022-12-08T01:16:51.575Z,2.97
2022-12-08T01:19:21.890Z,3.00
2022-12-08T01:21:52.047Z,2.33
2022-12-08T01:24:22.303Z,2.55
2022-12-08T01:26:52.626Z,2.40
2022-12-08T01:29:22.806Z,1.58
2022-12-08T01:31:53.034Z,1.15
2022-12-08T01:34:23.190Z,3.88
2022-12-08T01:36:53.374Z,2.20
2022-12-08T01:39:23.487Z,4.72
2022-12-08T01:41:53.680Z,3.03
2022-12-08T01:44:23.890Z,5.05
2022-12-08T01:46:54.881Z,3.08
2022-12-08T01:49:34.975Z,2.50
2022-12-08T01:52:21.937Z,2.95
2022-12-08T01:57:42.607Z,2.40
2022-12-08T02:00:16.050Z,2.22
2022-12-08T02:03:03.003Z,4.88
2022-12-08T02:05:40.008Z,2.88
2022-12-08T02:08:13.126Z,1.58
2022-12-08T02:10:44.064Z,3.22
2022-12-08T02:13:17.838Z,2.47
2022-12-08T02:16:09.192Z,2.45
2022-12-08T02:19:29.141Z,1.73
2022-12-08T02:22:09.513Z,2.38
2022-12-08T02:25:13.734Z,1.85
2022-12-08T02:28:02.282Z,3.63
2022-12-08T02:30:55.486Z,3.30
2022-12-08T02:33:44.411Z,2.45
2022-12-08T02:37:04.309Z,4.25
2022-12-08T02:39:44.541Z,1.35
2022-12-08T02:42:37.348Z,1.73
2022-12-08T02:45:16.847Z,1.42
2022-12-08T02:47:47.300Z,3.45
2022-12-08T02:50:17.475Z,1.45
2022-12-08T02:52:48.493Z,2.08
2022-12-08T02:55:43.288Z,3.40
2022-12-08T02:58:30.992Z,1.83
2022-12-08T03:01:25.913Z,1.98
2022-12-08T03:04:31.271Z,2.72
2022-12-08T03:07:24.840Z,2.35
2022-12-08T03:10:03.714Z,3.08
2022-12-08T03:12:44.035Z,1.98
2022-12-08T03:15:18.616Z,2.60
2022-12-08T03:17:57.057Z,1.92
2022-12-08T03:20:30.127Z,4.28
2022-12-08T03:23:05.100Z,2.72
2022-12-08T03:25:38.772Z,3.20
2022-12-08T03:28:09.081Z,3.35
2022-12-08T03:30:43.547Z,3.15
2022-12-08T03:33:23.996Z,2.97
2022-12-08T03:35:55.901Z,3.08
2022-12-08T03:38:26.695Z,2.05
2022-12-08T03:41:15.323Z,2.47
2022-12-08T03:43:52.961Z,1.95
2022-12-08T03:48:56.280Z,2.83
2022-12-08T03:51:27.412Z,2.08
2022-12-08T03:53:57.617Z,2.40
2022-12-08T03:56:30.879Z,3.20
2022-12-08T03:59:01.481Z,3.55
2022-12-08T04:01:32.163Z,6.35
2022-12-08T04:04:02.505Z,5.57
2022-12-08T04:06:32.896Z,2.95
2022-12-08T04:09:03.113Z,5.18
2022-12-08T04:11:33.526Z,4.10
2022-12-08T04:14:03.771Z,3.17
2022-12-08T04:16:34.025Z,4.10
2022-12-08T04:19:04.312Z,5.00
2022-12-08T04:21:34.560Z,4.65
2022-12-08T04:24:04.802Z,6.70
2022-12-08T04:26:34.986Z,5.15
2022-12-08T04:29:05.181Z,5.47
2022-12-08T04:31:35.345Z,4.25
2022-12-08T04:34:05.597Z,6.57
2022-12-08T04:36:35.945Z,3.22
2022-12-08T04:39:06.130Z,5.85
2022-12-08T04:41:36.241Z,5.28
2022-12-08T04:44:06.482Z,6.25
2022-12-08T04:46:41.710Z,7.03
2022-12-08T04:49:13.526Z,7.03
2022-12-08T04:51:43.757Z,7.43
2022-12-08T04:54:13.858Z,5.10
2022-12-08T04:56:44.024Z,7.55
2022-12-08T04:59:14.193Z,7.65
2022-12-08T05:01:44.467Z,4.75
2022-12-08T05:04:14.731Z,4.53
2022-12-08T05:06:44.873Z,8.77
2022-12-08T05:09:15.090Z,5.43
2022-12-08T05:11:48.867Z,6.70
2022-12-08T05:14:19.974Z,6.60
2022-12-08T05:16:50.437Z,5.15
2022-12-08T05:19:20.653Z,6.57
2022-12-08T05:21:50.882Z,6.22
2022-12-08T05:24:21.074Z,6.53
2022-12-08T05:26:51.313Z,4.57
2022-12-08T05:29:21.546Z,6.97
2022-12-08T05:31:51.987Z,8.32
2022-12-08T05:34:22.331Z,4.63
2022-12-08T05:36:52.609Z,5.65
2022-12-08T05:39:22.812Z,7.82
2022-12-08T05:41:53.009Z,7.18
2022-12-08T05:44:23.218Z,5.55
2022-12-08T05:46:53.358Z,7.60
2022-12-08T05:49:23.549Z,6.57
2022-12-08T05:51:53.695Z,5.55
2022-12-08T05:54:24.194Z,5.25
2022-12-08T05:56:54.488Z,8.85
2022-12-08T05:59:24.787Z,6.15
2022-12-08T06:01:54.960Z,9.07
2022-12-08T06:04:25.506Z,8.20
2022-12-08T06:06:55.916Z,6.55
2022-12-08T06:09:26.627Z,7.57
2022-12-08T06:11:56.885Z,6.38
2022-12-08T06:14:27.069Z,6.70
2022-12-08T06:16:57.371Z,11.18
2022-12-08T06:19:27.547Z,6.68
2022-12-08T06:21:57.724Z,6.40
2022-12-08T06:24:27.915Z,4.97
2022-12-08T06:26:58.139Z,5.78
2022-12-08T06:29:28.346Z,6.75
2022-12-08T06:31:58.644Z,6.68
2022-12-08T06:34:28.917Z,6.28
2022-12-08T06:36:59.162Z,7.47
2022-12-08T06:39:29.481Z,5.28
2022-12-08T06:42:18.458Z,8.27
2022-12-08T06:44:48.776Z,7.20
2022-12-08T06:47:26.062Z,5.93
2022-12-08T06:49:56.584Z,8.45
2022-12-08T06:52:26.685Z,9.02
2022-12-08T06:54:56.793Z,8.95
2022-12-08T06:57:26.887Z,9.98
2022-12-08T06:59:57.052Z,11.07
2022-12-08T07:02:27.225Z,7.30
2022-12-08T07:04:57.401Z,5.72
2022-12-08T07:07:27.644Z,13.35
2022-12-08T07:09:57.799Z,15.15
2022-12-08T07:12:27.906Z,11.05
2022-12-08T07:14:58.187Z,5.05
2022-12-08T07:17:28.262Z,5.88
2022-12-08T07:20:02.328Z,8.05
2022-12-08T07:22:32.818Z,7.63
2022-12-08T07:25:03.320Z,5.63
2022-12-08T07:27:33.551Z,8.40
2022-12-08T07:30:04.441Z,9.90
2022-12-08T07:32:34.931Z,4.43
2022-12-08T07:35:06.483Z,4.28
2022-12-08T07:37:37.704Z,6.63
2022-12-08T07:40:09.014Z,8.10
2022-12-08T07:42:39.344Z,9.23
2022-12-08T07:45:09.911Z,7.68
2022-12-08T07:47:40.052Z,6.65
2022-12-08T07:50:10.316Z,11.57
2022-12-08T07:52:40.495Z,14.02
2022-12-08T07:55:10.611Z,8.60
2022-12-08T07:57:40.849Z,6.78
2022-12-08T08:00:11.570Z,6.43
2022-12-08T08:02:42.256Z,7.30
2022-12-08T08:05:12.664Z,6.80
2022-12-08T08:07:43.886Z,7.07
2022-12-08T08:10:14.095Z,7.13
2022-12-08T08:12:44.451Z,5.82
2022-12-08T08:15:14.742Z,8.10
2022-12-08T08:17:45.134Z,3.72
2022-12-08T08:20:15.331Z,6.15
2022-12-08T08:22:50.464Z,4.85
2022-12-08T08:25:22.952Z,6.10
2022-12-08T08:27:54.595Z,6.03
2022-12-08T08:30:25.084Z,7.05
2022-12-08T08:32:55.325Z,4.25
2022-12-08T08:35:25.893Z,4.05
2022-12-08T08:37:56.490Z,4.38
2022-12-08T08:40:26.618Z,7.88
2022-12-08T08:42:56.845Z,6.30
2022-12-08T08:45:27.061Z,5.18
2022-12-08T08:47:57.350Z,5.20
2022-12-08T08:50:30.510Z,5.63
2022-12-08T08:55:34.917Z,7.50
2022-12-08T08:58:05.122Z,3.72
2022-12-08T09:00:35.300Z,13.20
2022-12-08T09:03:05.560Z,8.38
2022-12-08T09:05:39.521Z,5.30
2022-12-08T09:08:09.752Z,14.23
2022-12-08T09:10:40.033Z,9.85
2022-12-08T09:13:10.137Z,10.38
2022-12-08T09:15:40.451Z,8.10
2022-12-08T09:18:12.129Z,5.80
2022-12-08T09:20:43.948Z,3.75
2022-12-08T09:23:15.295Z,7.03
2022-12-08T09:25:48.609Z,65.00
2022-12-08T09:28:18.850Z,13.60
2022-12-08T09:30:48.963Z,14.25
2022-12-08T09:33:19.106Z,5.88
2022-12-08T09:35:49.510Z,4.80
2022-12-08T09:38:19.737Z,7.00
2022-12-08T09:40:54.493Z,6.35
2022-12-08T09:43:36.062Z,5.45
2022-12-08T09:46:10.594Z,8.75
2022-12-08T09:48:52.050Z,6.40
2022-12-08T09:51:27.122Z,9.25
2022-12-08T09:54:19.399Z,8.38
2022-12-08T09:56:55.171Z,9.50
2022-12-08T09:59:33.625Z,7.68
2022-12-08T10:02:22.660Z,7.32
2022-12-08T10:05:02.677Z,8.32
2022-12-08T10:07:48.955Z,8.02
2022-12-08T10:10:42.415Z,6.23
2022-12-08T10:13:36.416Z,6.53
2022-12-08T14:24:54.799Z,18.98
2022-12-08T14:27:27.142Z,24.60
2022-12-08T14:30:00.690Z,32.28
2022-12-08T14:32:44.537Z,22.23
2022-12-08T14:35:23.814Z,22.98
2022-12-08T14:38:00.274Z,27.92
2022-12-08T14:40:45.286Z,29.13
2022-12-08T14:43:19.078Z,25.88
2022-12-08T14:45:53.617Z,35.03
2022-12-08T14:48:28.500Z,28.70
2022-12-08T14:51:21.651Z,24.98
2022-12-08T14:54:01.760Z,19.38
2022-12-08T14:56:39.196Z,43.78
2022-12-08T14:59:19.560Z,37.35
2022-12-08T15:01:52.588Z,24.25
2022-12-08T15:04:28.621Z,18.55
2022-12-08T15:07:22.890Z,22.85
2022-12-08T15:10:08.595Z,23.98
2022-12-08T15:12:38.931Z,21.15
2022-12-08T15:15:08.998Z,18.73
2022-12-08T15:17:49.802Z,28.63
2022-12-08T15:20:43.292Z,19.70
2022-12-08T15:23:21.648Z,20.67
2022-12-08T15:25:52.599Z,21.02
2022-12-08T15:28:29.796Z,19.42
2022-12-08T15:31:00.875Z,16.75
2022-12-08T15:33:31.109Z,18.23
2022-12-08T15:36:01.302Z,19.25
2022-12-08T15:38:31.594Z,21.08
2022-12-08T15:41:01.898Z,18.83
2022-12-08T15:43:32.585Z,20.33
2022-12-08T15:46:04.642Z,20.23
2022-12-08T15:48:34.771Z,20.08
2022-12-08T15:51:04.976Z,24.92
2022-12-08T15:53:35.064Z,17.00
2022-12-08T15:58:58.623Z,21.80
2022-12-08T16:01:29.250Z,20.00
2022-12-08T16:04:27.900Z,31.65
2022-12-08T16:09:44.606Z,28.75
2022-12-08T16:18:25.093Z,31.27
2022-12-08T16:23:46.229Z,28.85
2022-12-08T16:27:50.638Z,25.85
2022-12-08T16:29:18.815Z,34.10
2022-12-08T16:31:50.312Z,31.90
2022-12-08T16:34:20.495Z,31.95
2022-12-08T16:36:52.591Z,33.13
2022-12-08T16:39:22.750Z,29.45
2022-12-08T16:42:11.571Z,28.77
2022-12-08T16:44:44.913Z,24.00
2022-12-08T16:47:15.106Z,30.55
2022-12-08T16:49:45.389Z,24.58
2022-12-08T16:52:17.399Z,32.97
2022-12-08T16:54:47.589Z,38.83
2022-12-08T16:57:17.759Z,42.50
2022-12-08T16:59:48.060Z,44.10
2022-12-08T17:02:19.017Z,43.25
2022-12-08T17:04:49.273Z,70.53
2022-12-08T17:07:19.457Z,49.45
2022-12-08T17:09:49.613Z,51.28
2022-12-08T17:12:19.834Z,37.50
2022-12-08T17:14:50.133Z,33.92
2022-12-08T17:17:20.315Z,34.53
2022-12-08T17:19:50.498Z,38.67
2022-12-08T17:22:20.697Z,35.85
2022-12-08T17:24:50.971Z,38.03
2022-12-08T17:27:21.217Z,29.45
2022-12-08T17:29:51.463Z,35.28
2022-12-08T17:32:22.003Z,33.35
2022-12-08T17:34:52.341Z,33.08
2022-12-08T17:37:22.568Z,30.60
2022-12-08T17:39:52.771Z,36.42
2022-12-08T17:42:26.200Z,36.60
2022-12-08T17:45:08.125Z,34.20
2022-12-08T17:47:38.987Z,42.58
2022-12-08T17:50:11.152Z,50.70
2022-12-08T17:52:41.830Z,38.28
2022-12-08T17:55:12.440Z,33.55
2022-12-08T17:57:42.974Z,35.58
2022-12-08T18:00:13.940Z,56.03
2022-12-08T18:02:44.155Z,34.97
2022-12-08T18:05:14.367Z,27.65
2022-12-08T18:07:44.921Z,23.50
2022-12-08T18:10:16.265Z,25.25
2022-12-08T18:12:46.755Z,24.83
2022-12-08T18:15:19.568Z,22.83
2022-12-08T18:17:49.719Z,33.63
2022-12-08T18:20:19.857Z,36.35
2022-12-08T18:22:51.771Z,27.38
2022-12-08T18:25:22.451Z,33.92
2022-12-08T18:27:53.425Z,24.33
2022-12-08T18:30:23.999Z,26.15
2022-12-08T18:32:57.333Z,21.65
2022-12-08T18:35:29.035Z,33.65
2022-12-08T18:38:00.478Z,26.45
2022-12-08T18:40:30.995Z,33.30
2022-12-08T18:43:01.190Z,29.48
2022-12-08T18:45:31.375Z,40.17
2022-12-08T18:48:01.542Z,28.50
2022-12-08T18:50:32.057Z,23.23
2022-12-08T18:53:02.753Z,28.38
2022-12-08T18:55:33.447Z,29.33
2022-12-08T18:58:04.116Z,29.92
2022-12-08T19:00:34.739Z,25.67
2022-12-08T19:03:05.541Z,23.95
2022-12-08T19:05:36.163Z,27.90
2022-12-08T19:08:07.374Z,24.67
2022-12-08T19:10:42.814Z,29.25
2022-12-08T19:13:15.219Z,30.20
2022-12-08T19:15:45.524Z,21.75
2022-12-08T19:18:16.301Z,44.20
2022-12-08T19:20:46.617Z,38.13
2022-12-08T19:23:16.990Z,30.33
2022-12-08T19:25:47.267Z,33.53
2022-12-08T19:28:17.516Z,30.50
2022-12-08T19:30:47.853Z,37.53
2022-12-08T19:33:18.018Z,37.22
2022-12-08T19:35:52.611Z,30.85
2022-12-08T19:38:23.213Z,30.13
2022-12-08T19:41:11.831Z,31.77
2022-12-08T19:44:00.347Z,22.85
2022-12-08T19:46:32.663Z,22.80
2022-12-08T19:49:06.143Z,16.77
2022-12-08T19:51:36.569Z,28.20
2022-12-08T19:54:07.597Z,25.40
2022-12-08T19:56:37.836Z,26.70
2022-12-08T19:59:08.161Z,27.30
2022-12-08T20:01:38.912Z,41.72
2022-12-08T20:04:10.650Z,36.95
2022-12-08T20:06:41.328Z,28.52
2022-12-08T20:09:13.151Z,25.50
2022-12-08T20:11:43.462Z,29.08
2022-12-08T20:14:13.631Z,26.55
2022-12-08T20:16:44.111Z,24.17
2022-12-08T20:19:14.401Z,26.65
2022-12-08T20:21:45.072Z,33.58
2022-12-08T20:24:16.811Z,26.35
2022-12-08T20:26:47.548Z,27.45
2022-12-08T20:29:18.909Z,27.63
2022-12-08T20:31:49.159Z,19.38
2022-12-08T20:34:20.094Z,38.72
2022-12-08T20:36:50.413Z,24.60
2022-12-08T20:39:20.582Z,30.77
2022-12-08T20:41:52.316Z,25.88
2022-12-08T20:44:28.873Z,27.65
2022-12-08T20:47:04.370Z,46.90
2022-12-08T20:49:42.021Z,44.63
2022-12-08T20:52:15.283Z,38.28
2022-12-08T20:54:50.513Z,30.98
2022-12-08T20:57:25.493Z,42.30
2022-12-08T20:59:59.218Z,32.28
2022-12-08T21:02:35.487Z,55.53
2022-12-08T21:05:08.908Z,24.88
2022-12-08T21:07:44.184Z,25.83
2022-12-08T21:10:20.022Z,29.42
2022-12-08T21:12:53.567Z,35.92
2022-12-08T21:15:25.221Z,21.77
2022-12-08T21:18:14.591Z,31.35
2022-12-08T21:20:47.311Z,51.55
2022-12-08T21:23:19.890Z,35.67
2022-12-08T21:25:51.729Z,25.88
2022-12-08T21:28:23.143Z,20.60
2022-12-08T21:30:56.435Z,24.85
2022-12-08T21:33:30.698Z,19.60
2022-12-08T21:36:15.668Z,17.50
2022-12-08T21:38:50.689Z,21.33
2022-12-08T21:41:49.690Z,40.78
2022-12-08T21:44:25.325Z,30.13
2022-12-08T21:47:01.412Z,23.08
2022-12-08T21:49:35.967Z,21.52
2022-12-08T21:52:14.596Z,18.95
2022-12-08T21:54:50.323Z,20.95
2022-12-08T21:57:20.635Z,23.55
2022-12-08T21:59:51.486Z,25.70
2022-12-08T22:02:23.224Z,28.45
2022-12-08T22:04:54.641Z,31.88
2022-12-08T22:07:25.367Z,38.17
2022-12-08T22:09:55.806Z,26.63
2022-12-08T22:12:26.155Z,51.25
2022-12-08T22:14:56.424Z,25.95
2022-12-08T22:17:26.799Z,25.85
2022-12-08T22:19:57.228Z,19.83
2022-12-08T22:22:27.641Z,18.63
2022-12-08T22:24:58.444Z,21.30
2022-12-08T22:27:28.996Z,15.80
2022-12-08T22:29:59.437Z,25.20
2022-12-08T22:32:29.740Z,20.45
2022-12-08T22:34:59.993Z,19.33
2022-12-08T22:37:30.232Z,24.33
2022-12-08T22:40:00.501Z,22.50
2022-12-08T22:42:31.207Z,24.30
2022-12-08T22:45:01.778Z,21.60
2022-12-08T22:47:32.115Z,20.25
2022-12-08T22:50:03.201Z,22.73
2022-12-08T22:52:33.802Z,25.73
2022-12-08T22:55:05.801Z,20.67
2022-12-08T22:57:36.052Z,16.88
2022-12-08T23:00:07.432Z,19.10
2022-12-08T23:02:38.263Z,22.75
2022-12-08T23:05:09.024Z,31.17
2022-12-08T23:07:39.902Z,31.95
2022-12-08T23:10:11.914Z,32.88
2022-12-08T23:12:42.512Z,26.05
2022-12-08T23:15:12.955Z,32.03
2022-12-08T23:17:43.482Z,37.65
2022-12-08T23:20:13.906Z,42.13
2022-12-08T23:22:44.128Z,23.10
2022-12-08T23:25:14.740Z,35.30
2022-12-08T23:27:46.052Z,25.05
2022-12-08T23:30:22.409Z,21.27
2022-12-08T23:32:56.600Z,19.40
2022-12-08T23:35:27.283Z,34.03
2022-12-08T23:37:57.992Z,18.10
2022-12-08T23:40:28.527Z,25.13
2022-12-08T23:42:58.862Z,29.30
2022-12-08T23:45:29.700Z,22.13
2022-12-08T23:48:00.248Z,22.13
2022-12-08T23:50:30.751Z,21.45
2022-12-08T23:53:01.150Z,22.40
2022-12-08T23:55:33.018Z,21.30
2022-12-08T23:58:03.460Z,14.77
